SAEZ/EZE METAR and TAF weather

Enter ICAO airport designator
Station Type Date Time Source
SAEZ METAR 2022/06/30 01:00 UTC NOAA

SAEZ 300100Z 34007KT 9999 BKN030 SCT100 14/06 Q1013 NOSIG RMK PP000


Station Type Date Time Source
SAEZ Decoded METAR 2022/06/30 01:00 UTC NOAA

Ezeiza Aerodrome, Argentina (SAEZ) 34-49S 058-32W 20M
Jun 29, 2022 - 09:00 PM EDT / 2022.06.30 0100 UTC
Wind: from the NNW (340 degrees) at 8 MPH (7 KT):0
Visibility: greater than 7 mile(s):0
Sky conditions: mostly cloudy
Temperature: 57 F (14 C)
Dew Point: 42 F (6 C)
Relative Humidity: 58%
Pressure (altimeter): 29.91 in. Hg (1013 hPa)
ob: SAEZ 300100Z 34007KT 9999 BKN030 SCT100 14/06 Q1013 NOSIG RMK PP000
cycle: 1

Station Type Date Time Source
SAEZ TAF 2022/06/29 18:21 UTC NOAA

TAF TAF SAEZ 291700Z 2918/3018 32010G25KT CAVOK TX19/2918Z TN05/3011Z
BECMG 3000/3003 27005KT 9999 SCT030 BKN050
BECMG 3009/3012 22004KT CAVOK

Example: see airport list